sensor_id;sensor_type;location;lat;lon;timestamp;temperature;humidity
39023;DHT22;25908;51.984;5.928;2022-09-06T00:01:55;23.00;77.90
39023;DHT22;25908;51.984;5.928;2022-09-06T00:04:21;23.00;78.00
39023;DHT22;25908;51.984;5.928;2022-09-06T00:06:46;23.00;78.10
39023;DHT22;25908;51.984;5.928;2022-09-06T00:09:12;23.00;78.10
39023;DHT22;25908;51.984;5.928;2022-09-06T00:11:38;23.00;77.90
39023;DHT22;25908;51.984;5.928;2022-09-06T00:14:03;23.00;77.80
39023;DHT22;25908;51.984;5.928;2022-09-06T00:16:29;22.90;77.70
39023;DHT22;25908;51.984;5.928;2022-09-06T00:18:54;22.90;77.70
39023;DHT22;25908;51.984;5.928;2022-09-06T00:21:25;22.90;77.70
39023;DHT22;25908;51.984;5.928;2022-09-06T00:23:51;22.90;77.40
39023;DHT22;25908;51.984;5.928;2022-09-06T00:26:18;22.90;77.40
39023;DHT22;25908;51.984;5.928;2022-09-06T00:28:43;22.90;77.40
39023;DHT22;25908;51.984;5.928;2022-09-06T00:31:14;22.90;77.60
39023;DHT22;25908;51.984;5.928;2022-09-06T00:33:40;22.90;77.70
39023;DHT22;25908;51.984;5.928;2022-09-06T00:36:06;22.90;77.80
39023;DHT22;25908;51.984;5.928;2022-09-06T00:38:32;22.90;77.80
39023;DHT22;25908;51.984;5.928;2022-09-06T00:40:58;22.80;77.60
39023;DHT22;25908;51.984;5.928;2022-09-06T00:43:24;22.90;77.60
39023;DHT22;25908;51.984;5.928;2022-09-06T00:45:49;22.80;77.50
39023;DHT22;25908;51.984;5.928;2022-09-06T00:48:16;22.90;77.60
39023;DHT22;25908;51.984;5.928;2022-09-06T00:50:43;22.80;77.90
39023;DHT22;25908;51.984;5.928;2022-09-06T00:53:11;22.80;78.30
39023;DHT22;25908;51.984;5.928;2022-09-06T00:55:36;22.80;78.80
39023;DHT22;25908;51.984;5.928;2022-09-06T00:58:02;22.70;79.30
39023;DHT22;25908;51.984;5.928;2022-09-06T01:00:28;22.70;79.80
39023;DHT22;25908;51.984;5.928;2022-09-06T01:02:54;22.60;80.70
39023;DHT22;25908;51.984;5.928;2022-09-06T01:05:24;22.60;81.00
39023;DHT22;25908;51.984;5.928;2022-09-06T01:08:03;22.60;82.70
39023;DHT22;25908;51.984;5.928;2022-09-06T01:10:54;22.50;83.20
39023;DHT22;25908;51.984;5.928;2022-09-06T01:14:03;22.40;83.40
39023;DHT22;25908;51.984;5.928;2022-09-06T01:22:17;22.20;86.60
39023;DHT22;25908;51.984;5.928;2022-09-06T01:27:34;22.00;89.60
39023;DHT22;25908;51.984;5.928;2022-09-06T01:30:09;22.00;90.20
39023;DHT22;25908;51.984;5.928;2022-09-06T01:35:33;22.00;90.90
39023;DHT22;25908;51.984;5.928;2022-09-06T01:38:01;22.00;91.10
39023;DHT22;25908;51.984;5.928;2022-09-06T01:40:27;21.90;91.00
39023;DHT22;25908;51.984;5.928;2022-09-06T01:42:53;21.90;91.20
39023;DHT22;25908;51.984;5.928;2022-09-06T01:48:10;21.80;91.60
39023;DHT22;25908;51.984;5.928;2022-09-06T01:55:56;21.70;91.90
39023;DHT22;25908;51.984;5.928;2022-09-06T02:01:39;21.70;92.10
39023;DHT22;25908;51.984;5.928;2022-09-06T02:04:17;21.60;92.20
39023;DHT22;25908;51.984;5.928;2022-09-06T02:06:54;21.50;92.00
39023;DHT22;25908;51.984;5.928;2022-09-06T02:09:24;21.50;92.40
39023;DHT22;25908;51.984;5.928;2022-09-06T02:11:54;21.50;92.70
39023;DHT22;25908;51.984;5.928;2022-09-06T02:14:45;21.50;92.90
39023;DHT22;25908;51.984;5.928;2022-09-06T02:17:14;21.40;92.70
39023;DHT22;25908;51.984;5.928;2022-09-06T02:19:56;21.40;92.50
39023;DHT22;25908;51.984;5.928;2022-09-06T02:22:26;21.30;92.70
39023;DHT22;25908;51.984;5.928;2022-09-06T02:24:55;21.30;92.70
39023;DHT22;25908;51.984;5.928;2022-09-06T02:27:22;21.20;92.80
39023;DHT22;25908;51.984;5.928;2022-09-06T02:29:48;21.10;92.80
39023;DHT22;25908;51.984;5.928;2022-09-06T02:32:21;21.10;93.00
39023;DHT22;25908;51.984;5.928;2022-09-06T02:34:51;21.10;93.40
39023;DHT22;25908;51.984;5.928;2022-09-06T02:37:18;21.10;93.60
39023;DHT22;25908;51.984;5.928;2022-09-06T02:39:44;21.10;93.40
39023;DHT22;25908;51.984;5.928;2022-09-06T02:42:12;21.00;93.60
39023;DHT22;25908;51.984;5.928;2022-09-06T02:44:38;21.00;93.70
39023;DHT22;25908;51.984;5.928;2022-09-06T02:47:04;21.00;94.10
39023;DHT22;25908;51.984;5.928;2022-09-06T02:49:30;20.90;94.10
39023;DHT22;25908;51.984;5.928;2022-09-06T02:51:56;20.90;94.20
39023;DHT22;25908;51.984;5.928;2022-09-06T02:54:22;20.80;93.90
39023;DHT22;25908;51.984;5.928;2022-09-06T02:56:48;20.70;94.10
39023;DHT22;25908;51.984;5.928;2022-09-06T02:59:13;20.60;94.30
39023;DHT22;25908;51.984;5.928;2022-09-06T03:01:39;20.60;94.40
39023;DHT22;25908;51.984;5.928;2022-09-06T03:04:04;20.60;94.50
39023;DHT22;25908;51.984;5.928;2022-09-06T03:06:30;20.60;94.50
39023;DHT22;25908;51.984;5.928;2022-09-06T03:08:56;20.70;94.60
39023;DHT22;25908;51.984;5.928;2022-09-06T03:11:24;20.70;94.40
39023;DHT22;25908;51.984;5.928;2022-09-06T03:13:50;20.70;94.30
39023;DHT22;25908;51.984;5.928;2022-09-06T03:16:17;20.70;94.30
39023;DHT22;25908;51.984;5.928;2022-09-06T03:18:43;20.70;94.30
39023;DHT22;25908;51.984;5.928;2022-09-06T03:21:08;20.70;94.20
39023;DHT22;25908;51.984;5.928;2022-09-06T03:23:34;20.80;94.30
39023;DHT22;25908;51.984;5.928;2022-09-06T03:26:00;20.80;94.30
39023;DHT22;25908;51.984;5.928;2022-09-06T03:28:25;20.80;94.20
39023;DHT22;25908;51.984;5.928;2022-09-06T03:30:52;20.80;94.30
39023;DHT22;25908;51.984;5.928;2022-09-06T03:33:19;20.80;94.10
39023;DHT22;25908;51.984;5.928;2022-09-06T03:35:58;20.80;94.10
39023;DHT22;25908;51.984;5.928;2022-09-06T03:38:26;20.80;94.20
39023;DHT22;25908;51.984;5.928;2022-09-06T03:40:52;20.80;94.30
39023;DHT22;25908;51.984;5.928;2022-09-06T03:43:18;20.80;94.30
39023;DHT22;25908;51.984;5.928;2022-09-06T03:45:47;20.80;94.60
39023;DHT22;25908;51.984;5.928;2022-09-06T03:48:13;20.80;94.40
39023;DHT22;25908;51.984;5.928;2022-09-06T03:50:51;20.80;94.40
39023;DHT22;25908;51.984;5.928;2022-09-06T03:53:19;20.80;94.50
39023;DHT22;25908;51.984;5.928;2022-09-06T03:55:46;20.80;94.30
39023;DHT22;25908;51.984;5.928;2022-09-06T03:58:12;20.80;94.20
39023;DHT22;25908;51.984;5.928;2022-09-06T04:00:38;20.80;94.30
39023;DHT22;25908;51.984;5.928;2022-09-06T04:03:04;20.80;94.40
39023;DHT22;25908;51.984;5.928;2022-09-06T04:05:29;20.80;94.50
39023;DHT22;25908;51.984;5.928;2022-09-06T04:07:55;20.70;94.60
39023;DHT22;25908;51.984;5.928;2022-09-06T04:10:20;20.70;94.70
39023;DHT22;25908;51.984;5.928;2022-09-06T04:12:46;20.70;94.80
39023;DHT22;25908;51.984;5.928;2022-09-06T04:15:11;20.60;94.80
39023;DHT22;25908;51.984;5.928;2022-09-06T04:17:37;20.70;94.90
39023;DHT22;25908;51.984;5.928;2022-09-06T04:20:03;20.70;95.00
39023;DHT22;25908;51.984;5.928;2022-09-06T04:22:29;20.70;95.00
39023;DHT22;25908;51.984;5.928;2022-09-06T04:24:55;20.70;95.20
39023;DHT22;25908;51.984;5.928;2022-09-06T04:27:20;20.70;95.00
39023;DHT22;25908;51.984;5.928;2022-09-06T04:29:46;20.70;95.00
39023;DHT22;25908;51.984;5.928;2022-09-06T04:32:11;20.70;95.00
39023;DHT22;25908;51.984;5.928;2022-09-06T04:34:37;20.70;95.10
39023;DHT22;25908;51.984;5.928;2022-09-06T04:37:02;20.70;95.10
39023;DHT22;25908;51.984;5.928;2022-09-06T04:39:28;20.70;95.00
39023;DHT22;25908;51.984;5.928;2022-09-06T04:41:53;20.70;95.00
39023;DHT22;25908;51.984;5.928;2022-09-06T04:44:19;20.70;95.00
39023;DHT22;25908;51.984;5.928;2022-09-06T04:46:44;20.70;95.00
39023;DHT22;25908;51.984;5.928;2022-09-06T04:49:10;20.70;94.90
39023;DHT22;25908;51.984;5.928;2022-09-06T04:51:35;20.60;94.90
39023;DHT22;25908;51.984;5.928;2022-09-06T04:54:03;20.60;95.00
39023;DHT22;25908;51.984;5.928;2022-09-06T04:56:29;20.60;94.90
39023;DHT22;25908;51.984;5.928;2022-09-06T04:58:54;20.60;94.80
39023;DHT22;25908;51.984;5.928;2022-09-06T05:01:20;20.60;94.90
39023;DHT22;25908;51.984;5.928;2022-09-06T05:03:46;20.60;95.00
39023;DHT22;25908;51.984;5.928;2022-09-06T05:06:21;20.60;94.90
39023;DHT22;25908;51.984;5.928;2022-09-06T05:08:47;20.60;94.80
39023;DHT22;25908;51.984;5.928;2022-09-06T05:11:13;20.60;94.80
39023;DHT22;25908;51.984;5.928;2022-09-06T05:13:39;20.60;94.90
39023;DHT22;25908;51.984;5.928;2022-09-06T05:16:06;20.60;94.70
39023;DHT22;25908;51.984;5.928;2022-09-06T05:18:32;20.50;94.50
39023;DHT22;25908;51.984;5.928;2022-09-06T05:20:58;20.50;94.70
39023;DHT22;25908;51.984;5.928;2022-09-06T05:23:25;20.50;94.90
39023;DHT22;25908;51.984;5.928;2022-09-06T05:25:51;20.50;95.00
39023;DHT22;25908;51.984;5.928;2022-09-06T05:28:17;20.60;95.10
39023;DHT22;25908;51.984;5.928;2022-09-06T05:30:42;20.50;95.20
39023;DHT22;25908;51.984;5.928;2022-09-06T05:33:09;20.50;95.20
39023;DHT22;25908;51.984;5.928;2022-09-06T05:35:35;20.50;95.20
39023;DHT22;25908;51.984;5.928;2022-09-06T05:38:00;20.60;94.90
39023;DHT22;25908;51.984;5.928;2022-09-06T05:40:26;20.50;94.90
39023;DHT22;25908;51.984;5.928;2022-09-06T05:42:51;20.50;95.00
39023;DHT22;25908;51.984;5.928;2022-09-06T05:45:17;20.50;95.00
39023;DHT22;25908;51.984;5.928;2022-09-06T05:47:43;20.50;95.10
39023;DHT22;25908;51.984;5.928;2022-09-06T05:50:08;20.50;95.10
39023;DHT22;25908;51.984;5.928;2022-09-06T05:52:34;20.50;95.00
39023;DHT22;25908;51.984;5.928;2022-09-06T05:55:01;20.60;95.00
39023;DHT22;25908;51.984;5.928;2022-09-06T05:57:27;20.60;95.00
39023;DHT22;25908;51.984;5.928;2022-09-06T05:59:52;20.60;95.10
39023;DHT22;25908;51.984;5.928;2022-09-06T06:02:19;20.70;95.20
39023;DHT22;25908;51.984;5.928;2022-09-06T06:04:45;20.70;95.00
39023;DHT22;25908;51.984;5.928;2022-09-06T06:07:10;20.70;94.60
39023;DHT22;25908;51.984;5.928;2022-09-06T06:09:36;20.80;94.30
39023;DHT22;25908;51.984;5.928;2022-09-06T06:12:01;20.80;94.10
39023;DHT22;25908;51.984;5.928;2022-09-06T06:14:27;20.80;94.00
39023;DHT22;25908;51.984;5.928;2022-09-06T06:16:53;20.90;94.20
39023;DHT22;25908;51.984;5.928;2022-09-06T06:19:18;20.80;94.30
39023;DHT22;25908;51.984;5.928;2022-09-06T06:21:43;20.90;94.10
39023;DHT22;25908;51.984;5.928;2022-09-06T06:24:09;20.80;94.00
39023;DHT22;25908;51.984;5.928;2022-09-06T06:26:35;20.90;94.00
39023;DHT22;25908;51.984;5.928;2022-09-06T06:29:02;20.90;93.90
39023;DHT22;25908;51.984;5.928;2022-09-06T06:31:29;20.90;93.80
39023;DHT22;25908;51.984;5.928;2022-09-06T06:33:55;20.90;93.90
39023;DHT22;25908;51.984;5.928;2022-09-06T06:36:22;20.90;94.10
39023;DHT22;25908;51.984;5.928;2022-09-06T06:38:51;21.00;94.00
39023;DHT22;25908;51.984;5.928;2022-09-06T06:41:18;21.00;93.70
39023;DHT22;25908;51.984;5.928;2022-09-06T06:43:44;21.20;93.60
39023;DHT22;25908;51.984;5.928;2022-09-06T06:46:12;21.30;93.40
39023;DHT22;25908;51.984;5.928;2022-09-06T06:48:38;21.50;92.90
39023;DHT22;25908;51.984;5.928;2022-09-06T06:51:06;21.70;92.90
39023;DHT22;25908;51.984;5.928;2022-09-06T06:53:32;22.00;92.40
39023;DHT22;25908;51.984;5.928;2022-09-06T06:55:58;22.30;92.20
39023;DHT22;25908;51.984;5.928;2022-09-06T06:58:23;22.50;91.50
39023;DHT22;25908;51.984;5.928;2022-09-06T07:00:49;22.70;90.90
39023;DHT22;25908;51.984;5.928;2022-09-06T07:03:15;23.00;90.50
39023;DHT22;25908;51.984;5.928;2022-09-06T07:05:40;23.20;90.10
39023;DHT22;25908;51.984;5.928;2022-09-06T07:08:10;23.40;89.00
39023;DHT22;25908;51.984;5.928;2022-09-06T07:10:35;23.60;87.10
39023;DHT22;25908;51.984;5.928;2022-09-06T07:13:01;24.00;86.00
39023;DHT22;25908;51.984;5.928;2022-09-06T07:15:27;24.30;84.70
39023;DHT22;25908;51.984;5.928;2022-09-06T07:17:56;24.50;83.00
39023;DHT22;25908;51.984;5.928;2022-09-06T07:20:22;24.80;82.00
39023;DHT22;25908;51.984;5.928;2022-09-06T07:23:01;25.10;81.40
39023;DHT22;25908;51.984;5.928;2022-09-06T07:25:27;25.30;80.90
39023;DHT22;25908;51.984;5.928;2022-09-06T07:28:03;25.60;80.60
39023;DHT22;25908;51.984;5.928;2022-09-06T07:30:35;25.80;78.40
39023;DHT22;25908;51.984;5.928;2022-09-06T07:33:03;25.90;78.20
39023;DHT22;25908;51.984;5.928;2022-09-06T07:35:31;26.20;77.20
39023;DHT22;25908;51.984;5.928;2022-09-06T07:37:58;26.30;76.80
39023;DHT22;25908;51.984;5.928;2022-09-06T07:40:25;26.50;75.30
39023;DHT22;25908;51.984;5.928;2022-09-06T07:42:54;26.80;74.50
39023;DHT22;25908;51.984;5.928;2022-09-06T07:45:20;27.00;72.60
39023;DHT22;25908;51.984;5.928;2022-09-06T07:47:55;27.10;72.40
39023;DHT22;25908;51.984;5.928;2022-09-06T07:50:23;27.30;71.70
39023;DHT22;25908;51.984;5.928;2022-09-06T07:52:49;27.50;70.80
39023;DHT22;25908;51.984;5.928;2022-09-06T07:55:14;27.70;70.30
39023;DHT22;25908;51.984;5.928;2022-09-06T07:57:40;27.90;69.20
39023;DHT22;25908;51.984;5.928;2022-09-06T08:00:06;27.90;67.50
39023;DHT22;25908;51.984;5.928;2022-09-06T08:02:32;28.00;67.30
39023;DHT22;25908;51.984;5.928;2022-09-06T08:04:57;28.20;66.20
39023;DHT22;25908;51.984;5.928;2022-09-06T08:07:23;28.30;66.50
39023;DHT22;25908;51.984;5.928;2022-09-06T08:09:49;28.60;65.60
39023;DHT22;25908;51.984;5.928;2022-09-06T08:12:15;28.60;65.00
39023;DHT22;25908;51.984;5.928;2022-09-06T08:14:40;28.80;65.50
39023;DHT22;25908;51.984;5.928;2022-09-06T08:17:06;29.00;65.60
39023;DHT22;25908;51.984;5.928;2022-09-06T08:19:32;29.10;63.80
39023;DHT22;25908;51.984;5.928;2022-09-06T08:21:58;29.20;63.30
39023;DHT22;25908;51.984;5.928;2022-09-06T08:24:24;29.20;64.10
39023;DHT22;25908;51.984;5.928;2022-09-06T08:26:50;29.40;64.10
39023;DHT22;25908;51.984;5.928;2022-09-06T08:29:16;29.70;63.00
39023;DHT22;25908;51.984;5.928;2022-09-06T08:31:44;29.80;61.00
39023;DHT22;25908;51.984;5.928;2022-09-06T08:34:09;29.80;61.90
39023;DHT22;25908;51.984;5.928;2022-09-06T08:36:37;29.90;61.30
39023;DHT22;25908;51.984;5.928;2022-09-06T08:39:05;30.00;60.80
39023;DHT22;25908;51.984;5.928;2022-09-06T08:41:47;30.10;60.80
39023;DHT22;25908;51.984;5.928;2022-09-06T08:44:25;30.30;59.70
39023;DHT22;25908;51.984;5.928;2022-09-06T08:46:58;30.40;58.70
39023;DHT22;25908;51.984;5.928;2022-09-06T08:49:27;30.30;58.40
39023;DHT22;25908;51.984;5.928;2022-09-06T08:57:49;30.40;58.60
39023;DHT22;25908;51.984;5.928;2022-09-06T09:00:18;30.50;58.80
39023;DHT22;25908;51.984;5.928;2022-09-06T09:02:48;30.60;56.80
39023;DHT22;25908;51.984;5.928;2022-09-06T09:05:21;30.70;57.60
39023;DHT22;25908;51.984;5.928;2022-09-06T09:11:04;30.90;57.30
39023;DHT22;25908;51.984;5.928;2022-09-06T09:13:53;31.00;57.60
39023;DHT22;25908;51.984;5.928;2022-09-06T09:16:20;31.10;55.90
39023;DHT22;25908;51.984;5.928;2022-09-06T09:18:52;31.10;55.20
39023;DHT22;25908;51.984;5.928;2022-09-06T09:21:20;31.10;55.50
39023;DHT22;25908;51.984;5.928;2022-09-06T09:26:05;31.00;54.80
39023;DHT22;25908;51.984;5.928;2022-09-06T09:28:31;31.00;56.70
39023;DHT22;25908;51.984;5.928;2022-09-06T09:30:57;31.00;55.90
39023;DHT22;25908;51.984;5.928;2022-09-06T09:33:34;31.00;55.10
39023;DHT22;25908;51.984;5.928;2022-09-06T09:36:20;31.10;54.80
39023;DHT22;25908;51.984;5.928;2022-09-06T09:38:46;31.10;55.70
39023;DHT22;25908;51.984;5.928;2022-09-06T09:41:30;31.30;55.70
39023;DHT22;25908;51.984;5.928;2022-09-06T09:44:02;31.30;54.70
39023;DHT22;25908;51.984;5.928;2022-09-06T09:46:34;31.30;55.60
39023;DHT22;25908;51.984;5.928;2022-09-06T09:51:39;31.40;53.90
39023;DHT22;25908;51.984;5.928;2022-09-06T09:54:08;31.40;54.30
39023;DHT22;25908;51.984;5.928;2022-09-06T09:56:48;31.50;54.00
39023;DHT22;25908;51.984;5.928;2022-09-06T09:59:20;31.30;53.70
39023;DHT22;25908;51.984;5.928;2022-09-06T10:01:46;31.20;54.90
39023;DHT22;25908;51.984;5.928;2022-09-06T10:04:18;31.20;53.50
39023;DHT22;25908;51.984;5.928;2022-09-06T10:06:44;31.20;53.60
39023;DHT22;25908;51.984;5.928;2022-09-06T10:09:32;31.10;54.20
39023;DHT22;25908;51.984;5.928;2022-09-06T10:11:59;31.20;52.90
39023;DHT22;25908;51.984;5.928;2022-09-06T10:14:31;31.20;52.10
39023;DHT22;25908;51.984;5.928;2022-09-06T10:16:58;31.30;53.80
39023;DHT22;25908;51.984;5.928;2022-09-06T10:19:37;31.30;52.90
39023;DHT22;25908;51.984;5.928;2022-09-06T10:22:28;31.30;52.90
39023;DHT22;25908;51.984;5.928;2022-09-06T10:28:11;31.30;52.40
39023;DHT22;25908;51.984;5.928;2022-09-06T10:31:25;31.40;52.50
39023;DHT22;25908;51.984;5.928;2022-09-06T10:36:19;31.20;52.60
39023;DHT22;25908;51.984;5.928;2022-09-06T10:38:53;31.20;53.30
39023;DHT22;25908;51.984;5.928;2022-09-06T10:44:33;31.20;52.00
39023;DHT22;25908;51.984;5.928;2022-09-06T10:47:12;31.10;52.30
39023;DHT22;25908;51.984;5.928;2022-09-06T10:49:45;31.10;53.50
39023;DHT22;25908;51.984;5.928;2022-09-06T10:52:18;31.10;52.00
39023;DHT22;25908;51.984;5.928;2022-09-06T10:54:47;31.00;53.10
39023;DHT22;25908;51.984;5.928;2022-09-06T10:57:24;31.10;53.70
39023;DHT22;25908;51.984;5.928;2022-09-06T10:59:56;31.20;51.70
39023;DHT22;25908;51.984;5.928;2022-09-06T11:04:51;31.10;52.40
39023;DHT22;25908;51.984;5.928;2022-09-06T11:07:20;31.20;53.40
39023;DHT22;25908;51.984;5.928;2022-09-06T11:09:56;31.30;52.40
39023;DHT22;25908;51.984;5.928;2022-09-06T11:12:42;31.30;52.30
39023;DHT22;25908;51.984;5.928;2022-09-06T11:15:12;31.20;52.40
39023;DHT22;25908;51.984;5.928;2022-09-06T11:17:42;31.20;52.50
39023;DHT22;25908;51.984;5.928;2022-09-06T11:25:59;31.10;51.70
39023;DHT22;25908;51.984;5.928;2022-09-06T11:30:59;31.10;52.50
39023;DHT22;25908;51.984;5.928;2022-09-06T11:33:30;31.00;52.70
39023;DHT22;25908;51.984;5.928;2022-09-06T11:38:59;31.00;52.20
39023;DHT22;25908;51.984;5.928;2022-09-06T11:41:34;30.90;52.00
39023;DHT22;25908;51.984;5.928;2022-09-06T11:44:00;30.80;52.20
39023;DHT22;25908;51.984;5.928;2022-09-06T11:49:07;30.70;53.00
39023;DHT22;25908;51.984;5.928;2022-09-06T11:51:43;30.70;53.30
39023;DHT22;25908;51.984;5.928;2022-09-06T11:54:22;30.70;53.10
39023;DHT22;25908;51.984;5.928;2022-09-06T11:56:58;30.70;52.60
39023;DHT22;25908;51.984;5.928;2022-09-06T11:59:48;30.60;52.80
39023;DHT22;25908;51.984;5.928;2022-09-06T12:02:35;30.50;53.60
39023;DHT22;25908;51.984;5.928;2022-09-06T12:07:29;30.50;54.10
39023;DHT22;25908;51.984;5.928;2022-09-06T12:09:56;30.50;54.40
39023;DHT22;25908;51.984;5.928;2022-09-06T12:12:47;30.50;54.40
39023;DHT22;25908;51.984;5.928;2022-09-06T12:15:30;30.40;54.40
39023;DHT22;25908;51.984;5.928;2022-09-06T12:18:00;30.30;54.30
39023;DHT22;25908;51.984;5.928;2022-09-06T12:26:05;30.10;54.90
39023;DHT22;25908;51.984;5.928;2022-09-06T12:28:40;30.00;55.20
39023;DHT22;25908;51.984;5.928;2022-09-06T12:31:35;30.00;55.50
39023;DHT22;25908;51.984;5.928;2022-09-06T12:34:16;30.00;55.80
39023;DHT22;25908;51.984;5.928;2022-09-06T12:37:04;30.00;55.90
39023;DHT22;25908;51.984;5.928;2022-09-06T12:39:31;30.00;55.20
39023;DHT22;25908;51.984;5.928;2022-09-06T12:42:03;29.90;55.60
39023;DHT22;25908;51.984;5.928;2022-09-06T12:44:33;29.80;55.20
39023;DHT22;25908;51.984;5.928;2022-09-06T12:47:08;29.70;56.20
39023;DHT22;25908;51.984;5.928;2022-09-06T12:49:35;29.70;56.50
39023;DHT22;25908;51.984;5.928;2022-09-06T12:52:12;29.70;56.60
39023;DHT22;25908;51.984;5.928;2022-09-06T12:54:47;29.70;56.20
39023;DHT22;25908;51.984;5.928;2022-09-06T12:57:23;29.70;56.40
39023;DHT22;25908;51.984;5.928;2022-09-06T12:59:56;29.50;56.60
39023;DHT22;25908;51.984;5.928;2022-09-06T13:02:31;29.50;57.00
39023;DHT22;25908;51.984;5.928;2022-09-06T13:05:06;29.50;57.30
39023;DHT22;25908;51.984;5.928;2022-09-06T13:07:43;29.50;57.30
39023;DHT22;25908;51.984;5.928;2022-09-06T13:10:11;29.40;57.00
39023;DHT22;25908;51.984;5.928;2022-09-06T13:12:42;29.40;57.00
39023;DHT22;25908;51.984;5.928;2022-09-06T13:15:28;29.40;57.20
39023;DHT22;25908;51.984;5.928;2022-09-06T13:18:23;29.30;57.00
39023;DHT22;25908;51.984;5.928;2022-09-06T13:21:07;29.30;57.80
39023;DHT22;25908;51.984;5.928;2022-09-06T13:23:44;29.20;57.30
39023;DHT22;25908;51.984;5.928;2022-09-06T13:26:10;29.10;57.70
39023;DHT22;25908;51.984;5.928;2022-09-06T13:28:37;29.10;58.40
39023;DHT22;25908;51.984;5.928;2022-09-06T13:31:11;29.00;58.90
39023;DHT22;25908;51.984;5.928;2022-09-06T13:33:39;29.00;59.00
39023;DHT22;25908;51.984;5.928;2022-09-06T13:41:02;28.90;58.00
39023;DHT22;25908;51.984;5.928;2022-09-06T13:43:28;28.80;57.60
39023;DHT22;25908;51.984;5.928;2022-09-06T13:46:05;28.80;57.40
39023;DHT22;25908;51.984;5.928;2022-09-06T13:48:31;28.80;57.00
39023;DHT22;25908;51.984;5.928;2022-09-06T13:50:57;28.70;57.40
39023;DHT22;25908;51.984;5.928;2022-09-06T13:53:23;28.70;57.80
39023;DHT22;25908;51.984;5.928;2022-09-06T13:55:48;28.70;57.40
39023;DHT22;25908;51.984;5.928;2022-09-06T13:58:14;28.70;57.10
39023;DHT22;25908;51.984;5.928;2022-09-06T14:00:40;28.70;54.90
39023;DHT22;25908;51.984;5.928;2022-09-06T14:03:07;28.60;54.70
39023;DHT22;25908;51.984;5.928;2022-09-06T14:05:33;28.50;55.20
39023;DHT22;25908;51.984;5.928;2022-09-06T14:08:03;28.50;55.00
39023;DHT22;25908;51.984;5.928;2022-09-06T14:10:29;28.50;51.90
39023;DHT22;25908;51.984;5.928;2022-09-06T14:12:54;28.50;52.50
39023;DHT22;25908;51.984;5.928;2022-09-06T14:15:20;28.50;52.80
39023;DHT22;25908;51.984;5.928;2022-09-06T14:17:45;28.40;53.10
39023;DHT22;25908;51.984;5.928;2022-09-06T14:20:11;28.40;54.40
39023;DHT22;25908;51.984;5.928;2022-09-06T14:22:37;28.30;52.90
39023;DHT22;25908;51.984;5.928;2022-09-06T14:25:03;28.30;53.10
39023;DHT22;25908;51.984;5.928;2022-09-06T14:27:28;28.30;53.30
39023;DHT22;25908;51.984;5.928;2022-09-06T14:29:54;28.30;54.10
39023;DHT22;25908;51.984;5.928;2022-09-06T14:32:20;28.30;53.20
39023;DHT22;25908;51.984;5.928;2022-09-06T14:34:46;28.20;53.50
39023;DHT22;25908;51.984;5.928;2022-09-06T14:37:11;28.20;53.10
39023;DHT22;25908;51.984;5.928;2022-09-06T14:39:37;28.20;54.00
39023;DHT22;25908;51.984;5.928;2022-09-06T14:42:02;28.20;53.10
39023;DHT22;25908;51.984;5.928;2022-09-06T14:44:28;28.20;53.80
39023;DHT22;25908;51.984;5.928;2022-09-06T14:46:54;28.20;54.70
39023;DHT22;25908;51.984;5.928;2022-09-06T14:49:22;28.20;54.40
39023;DHT22;25908;51.984;5.928;2022-09-06T14:51:51;28.20;54.40
39023;DHT22;25908;51.984;5.928;2022-09-06T14:54:17;28.20;54.70
39023;DHT22;25908;51.984;5.928;2022-09-06T14:56:45;28.20;55.50
39023;DHT22;25908;51.984;5.928;2022-09-06T14:59:10;28.20;54.70
39023;DHT22;25908;51.984;5.928;2022-09-06T15:01:36;28.20;54.10
39023;DHT22;25908;51.984;5.928;2022-09-06T15:04:04;28.20;54.90
39023;DHT22;25908;51.984;5.928;2022-09-06T15:06:32;28.10;55.50
39023;DHT22;25908;51.984;5.928;2022-09-06T15:08:58;28.10;56.10
39023;DHT22;25908;51.984;5.928;2022-09-06T15:11:33;28.10;56.00
39023;DHT22;25908;51.984;5.928;2022-09-06T15:14:00;28.10;55.70
39023;DHT22;25908;51.984;5.928;2022-09-06T15:16:26;28.10;55.80
39023;DHT22;25908;51.984;5.928;2022-09-06T15:18:53;28.10;55.40
39023;DHT22;25908;51.984;5.928;2022-09-06T15:21:18;28.10;54.60
39023;DHT22;25908;51.984;5.928;2022-09-06T15:23:44;28.00;55.30
39023;DHT22;25908;51.984;5.928;2022-09-06T15:26:11;28.00;55.20
39023;DHT22;25908;51.984;5.928;2022-09-06T15:28:39;27.90;55.70
39023;DHT22;25908;51.984;5.928;2022-09-06T15:31:06;27.90;54.90
39023;DHT22;25908;51.984;5.928;2022-09-06T15:33:34;27.90;55.90
39023;DHT22;25908;51.984;5.928;2022-09-06T15:36:00;27.90;56.40
39023;DHT22;25908;51.984;5.928;2022-09-06T15:38:30;27.90;56.20
39023;DHT22;25908;51.984;5.928;2022-09-06T15:41:11;27.90;57.30
39023;DHT22;25908;51.984;5.928;2022-09-06T15:43:39;27.90;55.80
39023;DHT22;25908;51.984;5.928;2022-09-06T15:46:07;27.90;56.20
39023;DHT22;25908;51.984;5.928;2022-09-06T15:48:47;27.90;57.00
39023;DHT22;25908;51.984;5.928;2022-09-06T15:51:16;27.90;56.30
39023;DHT22;25908;51.984;5.928;2022-09-06T15:53:42;27.90;56.30
39023;DHT22;25908;51.984;5.928;2022-09-06T15:56:09;27.80;56.50
39023;DHT22;25908;51.984;5.928;2022-09-06T15:58:35;27.80;57.60
39023;DHT22;25908;51.984;5.928;2022-09-06T16:03:30;27.80;57.60
39023;DHT22;25908;51.984;5.928;2022-09-06T16:06:22;27.80;57.00
39023;DHT22;25908;51.984;5.928;2022-09-06T16:08:50;27.80;56.70
39023;DHT22;25908;51.984;5.928;2022-09-06T16:11:17;27.80;56.80
39023;DHT22;25908;51.984;5.928;2022-09-06T16:13:43;27.80;57.40
39023;DHT22;25908;51.984;5.928;2022-09-06T16:16:12;27.80;57.90
39023;DHT22;25908;51.984;5.928;2022-09-06T16:18:40;27.80;58.20
39023;DHT22;25908;51.984;5.928;2022-09-06T16:21:09;27.80;58.20
39023;DHT22;25908;51.984;5.928;2022-09-06T16:23:36;27.80;57.40
39023;DHT22;25908;51.984;5.928;2022-09-06T16:26:03;27.80;57.40
39023;DHT22;25908;51.984;5.928;2022-09-06T16:28:30;27.80;56.40
39023;DHT22;25908;51.984;5.928;2022-09-06T16:31:03;27.70;56.60
39023;DHT22;25908;51.984;5.928;2022-09-06T16:33:31;27.70;56.90
39023;DHT22;25908;51.984;5.928;2022-09-06T16:36:04;27.70;57.90
39023;DHT22;25908;51.984;5.928;2022-09-06T16:38:31;27.60;57.00
39023;DHT22;25908;51.984;5.928;2022-09-06T16:41:17;27.60;57.00
39023;DHT22;25908;51.984;5.928;2022-09-06T16:43:44;27.60;56.90
39023;DHT22;25908;51.984;5.928;2022-09-06T16:46:11;27.60;57.20
39023;DHT22;25908;51.984;5.928;2022-09-06T16:48:37;27.60;57.60
39023;DHT22;25908;51.984;5.928;2022-09-06T16:51:13;27.50;57.40
39023;DHT22;25908;51.984;5.928;2022-09-06T16:53:40;27.40;57.40
39023;DHT22;25908;51.984;5.928;2022-09-06T16:56:07;27.40;57.90
39023;DHT22;25908;51.984;5.928;2022-09-06T16:58:32;27.40;58.00
39023;DHT22;25908;51.984;5.928;2022-09-06T17:00:58;27.30;58.00